sensor_id;sensor_type;location;lat;lon;timestamp;pressure;altitude;pressure_sealevel;temperature;humidity
27425;BME280;15244;49.088;11.886;2023-06-22T00:04:29;96044.44;;;24.25;49.58
27425;BME280;15244;49.088;11.886;2023-06-22T00:09:31;96026.97;;;24.24;49.57
27425;BME280;15244;49.088;11.886;2023-06-22T00:14:33;96023.88;;;24.22;49.67
27425;BME280;15244;49.088;11.886;2023-06-22T00:19:35;96025.56;;;24.19;49.75
27425;BME280;15244;49.088;11.886;2023-06-22T00:24:37;96010.25;;;24.15;49.58
27425;BME280;15244;49.088;11.886;2023-06-22T00:29:38;96015.50;;;24.13;49.91
27425;BME280;15244;49.088;11.886;2023-06-22T00:34:40;96000.50;;;24.10;49.99
27425;BME280;15244;49.088;11.886;2023-06-22T00:39:42;95995.41;;;24.09;50.32
27425;BME280;15244;49.088;11.886;2023-06-22T00:44:45;96000.69;;;24.07;50.35
27425;BME280;15244;49.088;11.886;2023-06-22T00:49:47;95998.34;;;24.05;49.90
27425;BME280;15244;49.088;11.886;2023-06-22T00:54:52;95987.06;;;23.99;49.96
27425;BME280;15244;49.088;11.886;2023-06-22T00:59:55;95991.25;;;23.95;50.16
27425;BME280;15244;49.088;11.886;2023-06-22T01:04:56;95977.94;;;23.90;50.35
27425;BME280;15244;49.088;11.886;2023-06-22T01:10:18;95976.59;;;23.85;50.50
27425;BME280;15244;49.088;11.886;2023-06-22T01:15:37;95974.09;;;23.78;50.03
27425;BME280;15244;49.088;11.886;2023-06-22T01:20:41;95987.41;;;23.74;50.15
27425;BME280;15244;49.088;11.886;2023-06-22T01:25:47;95974.06;;;23.69;50.15
27425;BME280;15244;49.088;11.886;2023-06-22T01:30:50;95982.59;;;23.65;50.32
27425;BME280;15244;49.088;11.886;2023-06-22T01:36:06;95984.56;;;23.65;50.81
27425;BME280;15244;49.088;11.886;2023-06-22T01:41:08;95992.16;;;23.64;50.94
27425;BME280;15244;49.088;11.886;2023-06-22T01:46:11;96004.06;;;23.65;50.94
27425;BME280;15244;49.088;11.886;2023-06-22T01:51:13;95998.66;;;23.61;51.19
27425;BME280;15244;49.088;11.886;2023-06-22T01:56:18;96001.91;;;23.59;51.28
27425;BME280;15244;49.088;11.886;2023-06-22T02:01:31;96002.06;;;23.56;50.82
27425;BME280;15244;49.088;11.886;2023-06-22T02:06:37;96001.41;;;23.52;51.14
27425;BME280;15244;49.088;11.886;2023-06-22T02:11:42;96006.69;;;23.50;51.35
27425;BME280;15244;49.088;11.886;2023-06-22T02:16:46;96014.72;;;23.48;51.46
27425;BME280;15244;49.088;11.886;2023-06-22T02:21:48;96010.38;;;23.47;51.77
27425;BME280;15244;49.088;11.886;2023-06-22T02:26:50;96002.53;;;23.45;51.81
27425;BME280;15244;49.088;11.886;2023-06-22T02:31:51;95999.41;;;23.43;51.72
27425;BME280;15244;49.088;11.886;2023-06-22T02:36:53;95993.53;;;23.41;51.91
27425;BME280;15244;49.088;11.886;2023-06-22T02:41:55;95988.75;;;23.42;52.08
27425;BME280;15244;49.088;11.886;2023-06-22T02:46:57;95990.44;;;23.39;51.99
27425;BME280;15244;49.088;11.886;2023-06-22T02:51:59;95990.91;;;23.38;51.81
27425;BME280;15244;49.088;11.886;2023-06-22T02:57:01;95984.72;;;23.33;51.83
27425;BME280;15244;49.088;11.886;2023-06-22T03:02:06;95983.63;;;23.31;52.19
27425;BME280;15244;49.088;11.886;2023-06-22T03:07:08;95980.84;;;23.31;52.20
27425;BME280;15244;49.088;11.886;2023-06-22T03:12:10;95981.63;;;23.31;52.48
27425;BME280;15244;49.088;11.886;2023-06-22T03:17:27;95977.75;;;23.29;52.27
27425;BME280;15244;49.088;11.886;2023-06-22T03:22:30;95974.66;;;23.27;52.25
27425;BME280;15244;49.088;11.886;2023-06-22T03:27:32;95966.03;;;23.25;52.29
27425;BME280;15244;49.088;11.886;2023-06-22T03:32:34;95977.59;;;23.23;52.31
27425;BME280;15244;49.088;11.886;2023-06-22T03:37:36;95976.34;;;23.24;52.27
27425;BME280;15244;49.088;11.886;2023-06-22T03:42:37;95984.69;;;23.24;52.63
27425;BME280;15244;49.088;11.886;2023-06-22T03:47:41;95985.50;;;23.25;52.55
27425;BME280;15244;49.088;11.886;2023-06-22T03:52:43;96005.72;;;23.25;52.92
27425;BME280;15244;49.088;11.886;2023-06-22T03:57:45;96008.19;;;23.23;52.57
27425;BME280;15244;49.088;11.886;2023-06-22T04:02:47;96020.84;;;23.24;52.84
27425;BME280;15244;49.088;11.886;2023-06-22T04:07:49;96012.38;;;23.28;52.89
27425;BME280;15244;49.088;11.886;2023-06-22T04:12:50;96012.69;;;23.30;52.80
27425;BME280;15244;49.088;11.886;2023-06-22T04:17:54;96019.78;;;23.31;53.00
27425;BME280;15244;49.088;11.886;2023-06-22T04:22:57;96019.34;;;23.32;53.38
27425;BME280;15244;49.088;11.886;2023-06-22T04:27:58;96020.44;;;23.35;53.33
27425;BME280;15244;49.088;11.886;2023-06-22T04:33:00;96018.25;;;23.39;53.45
27425;BME280;15244;49.088;11.886;2023-06-22T04:38:02;95996.63;;;23.43;53.72
27425;BME280;15244;49.088;11.886;2023-06-22T04:43:05;95995.25;;;23.48;53.76
27425;BME280;15244;49.088;11.886;2023-06-22T04:48:08;95989.53;;;23.51;53.27
27425;BME280;15244;49.088;11.886;2023-06-22T04:53:18;95992.94;;;23.55;53.49
27425;BME280;15244;49.088;11.886;2023-06-22T04:58:19;96003.91;;;23.59;53.52
27425;BME280;15244;49.088;11.886;2023-06-22T05:03:25;95999.44;;;23.62;53.47
27425;BME280;15244;49.088;11.886;2023-06-22T05:08:28;95982.59;;;23.65;53.71
27425;BME280;15244;49.088;11.886;2023-06-22T05:13:30;95976.41;;;23.70;53.53
27425;BME280;15244;49.088;11.886;2023-06-22T05:18:32;95972.22;;;23.75;53.64
27425;BME280;15244;49.088;11.886;2023-06-22T05:23:34;95969.31;;;23.78;53.81
27425;BME280;15244;49.088;11.886;2023-06-22T05:28:36;95967.16;;;23.83;53.79
27425;BME280;15244;49.088;11.886;2023-06-22T05:33:38;95964.50;;;23.88;53.87
27425;BME280;15244;49.088;11.886;2023-06-22T05:38:41;95972.25;;;23.93;53.86
27425;BME280;15244;49.088;11.886;2023-06-22T05:43:43;95975.94;;;23.99;53.94
27425;BME280;15244;49.088;11.886;2023-06-22T05:48:44;95977.78;;;24.02;53.88
27425;BME280;15244;49.088;11.886;2023-06-22T05:53:46;95978.72;;;24.09;53.61
27425;BME280;15244;49.088;11.886;2023-06-22T05:58:50;95959.34;;;24.14;53.75
27425;BME280;15244;49.088;11.886;2023-06-22T06:03:52;95955.75;;;24.23;53.78
27425;BME280;15244;49.088;11.886;2023-06-22T06:08:54;95950.66;;;24.31;53.77
27425;BME280;15244;49.088;11.886;2023-06-22T06:13:56;95955.09;;;24.37;54.00
27425;BME280;15244;49.088;11.886;2023-06-22T06:18:58;95958.38;;;24.45;53.67
27425;BME280;15244;49.088;11.886;2023-06-22T06:24:00;95948.72;;;24.55;53.77
27425;BME280;15244;49.088;11.886;2023-06-22T06:29:01;95940.34;;;24.64;53.89
27425;BME280;15244;49.088;11.886;2023-06-22T06:34:03;95943.06;;;24.74;53.63
27425;BME280;15244;49.088;11.886;2023-06-22T06:39:05;95943.31;;;24.85;53.83
27425;BME280;15244;49.088;11.886;2023-06-22T06:44:07;95935.19;;;24.96;53.48
27425;BME280;15244;49.088;11.886;2023-06-22T06:49:09;95941.78;;;25.08;53.38
27425;BME280;15244;49.088;11.886;2023-06-22T06:54:10;95931.38;;;25.18;53.25
27425;BME280;15244;49.088;11.886;2023-06-22T06:59:12;95935.66;;;25.28;53.23
27425;BME280;15244;49.088;11.886;2023-06-22T07:04:13;95932.31;;;25.39;53.05
27425;BME280;15244;49.088;11.886;2023-06-22T07:09:15;95920.13;;;25.51;53.20
27425;BME280;15244;49.088;11.886;2023-06-22T07:14:17;95915.53;;;25.63;52.97
27425;BME280;15244;49.088;11.886;2023-06-22T07:19:24;95917.00;;;25.73;53.02
27425;BME280;15244;49.088;11.886;2023-06-22T07:24:26;95908.03;;;25.84;52.84
27425;BME280;15244;49.088;11.886;2023-06-22T07:29:28;95905.00;;;25.97;52.69
27425;BME280;15244;49.088;11.886;2023-06-22T07:34:30;95919.16;;;26.08;52.68
27425;BME280;15244;49.088;11.886;2023-06-22T07:39:31;95916.09;;;26.21;53.02
27425;BME280;15244;49.088;11.886;2023-06-22T07:44:33;95906.91;;;26.35;52.85
27425;BME280;15244;49.088;11.886;2023-06-22T07:49:35;95890.56;;;26.48;52.88
27425;BME280;15244;49.088;11.886;2023-06-22T07:54:36;95893.88;;;26.62;52.26
27425;BME280;15244;49.088;11.886;2023-06-22T07:59:38;95889.00;;;26.77;52.15
27425;BME280;15244;49.088;11.886;2023-06-22T08:04:39;95892.22;;;26.90;52.09
27425;BME280;15244;49.088;11.886;2023-06-22T08:09:46;95884.25;;;27.03;51.39
27425;BME280;15244;49.088;11.886;2023-06-22T08:14:48;95892.31;;;27.16;50.79
27425;BME280;15244;49.088;11.886;2023-06-22T08:19:50;95897.56;;;27.29;50.41
27425;BME280;15244;49.088;11.886;2023-06-22T08:24:51;95887.28;;;27.41;50.03
27425;BME280;15244;49.088;11.886;2023-06-22T08:29:53;95891.75;;;27.53;49.36
27425;BME280;15244;49.088;11.886;2023-06-22T08:34:59;95882.97;;;27.66;49.41
27425;BME280;15244;49.088;11.886;2023-06-22T08:40:03;95886.94;;;27.80;49.17
27425;BME280;15244;49.088;11.886;2023-06-22T08:45:07;95886.31;;;27.91;48.60
27425;BME280;15244;49.088;11.886;2023-06-22T08:50:10;95885.91;;;28.03;47.87
27425;BME280;15244;49.088;11.886;2023-06-22T08:55:12;95884.47;;;28.14;47.37
27425;BME280;15244;49.088;11.886;2023-06-22T09:00:16;95894.53;;;28.26;47.37
27425;BME280;15244;49.088;11.886;2023-06-22T09:05:19;95900.47;;;28.39;46.60
27425;BME280;15244;49.088;11.886;2023-06-22T09:10:23;95897.78;;;28.50;46.65
27425;BME280;15244;49.088;11.886;2023-06-22T09:15:25;95888.72;;;28.67;46.54
27425;BME280;15244;49.088;11.886;2023-06-22T09:20:26;95881.19;;;28.84;46.39
27425;BME280;15244;49.088;11.886;2023-06-22T09:25:28;95884.81;;;29.02;45.76
27425;BME280;15244;49.088;11.886;2023-06-22T09:30:30;95872.19;;;29.17;45.01
27425;BME280;15244;49.088;11.886;2023-06-22T09:35:32;95869.19;;;29.32;45.09
27425;BME280;15244;49.088;11.886;2023-06-22T09:40:34;95877.38;;;29.47;44.50
27425;BME280;15244;49.088;11.886;2023-06-22T09:45:41;95870.28;;;29.63;44.53
27425;BME280;15244;49.088;11.886;2023-06-22T09:50:43;95858.59;;;29.81;44.37
27425;BME280;15244;49.088;11.886;2023-06-22T09:55:45;95857.06;;;29.97;44.01
27425;BME280;15244;49.088;11.886;2023-06-22T10:00:46;95846.34;;;30.18;43.90
27425;BME280;15244;49.088;11.886;2023-06-22T10:05:48;95846.34;;;30.35;43.47
27425;BME280;15244;49.088;11.886;2023-06-22T10:10:50;95841.47;;;30.53;43.17
27425;BME280;15244;49.088;11.886;2023-06-22T10:15:54;95834.53;;;30.71;42.58
27425;BME280;15244;49.088;11.886;2023-06-22T10:20:56;95831.44;;;30.85;42.32
27425;BME280;15244;49.088;11.886;2023-06-22T10:25:57;95819.38;;;31.02;41.73
27425;BME280;15244;49.088;11.886;2023-06-22T10:30:59;95821.34;;;31.18;41.35
27425;BME280;15244;49.088;11.886;2023-06-22T10:36:01;95808.19;;;31.32;40.83
27425;BME280;15244;49.088;11.886;2023-06-22T10:41:02;95810.19;;;31.48;41.24
27425;BME280;15244;49.088;11.886;2023-06-22T10:46:04;95794.72;;;31.66;40.67
27425;BME280;15244;49.088;11.886;2023-06-22T10:51:06;95795.13;;;31.82;40.06
27425;BME280;15244;49.088;11.886;2023-06-22T10:56:07;95797.34;;;31.94;39.59
27425;BME280;15244;49.088;11.886;2023-06-22T11:01:09;95786.75;;;32.06;39.31
27425;BME280;15244;49.088;11.886;2023-06-22T11:06:30;95777.91;;;32.21;38.90
27425;BME280;15244;49.088;11.886;2023-06-22T11:11:32;95776.72;;;32.35;38.63
27425;BME280;15244;49.088;11.886;2023-06-22T11:16:34;95774.06;;;32.49;38.03
27425;BME280;15244;49.088;11.886;2023-06-22T11:21:36;95761.34;;;32.61;37.67
27425;BME280;15244;49.088;11.886;2023-06-22T11:26:37;95761.22;;;32.72;37.75
27425;BME280;15244;49.088;11.886;2023-06-22T11:31:39;95751.84;;;32.83;37.68
27425;BME280;15244;49.088;11.886;2023-06-22T11:36:41;95757.38;;;32.94;36.95
27425;BME280;15244;49.088;11.886;2023-06-22T11:41:42;95761.06;;;33.08;37.23
27425;BME280;15244;49.088;11.886;2023-06-22T11:46:44;95750.38;;;33.20;36.43
27425;BME280;15244;49.088;11.886;2023-06-22T11:51:45;95750.97;;;33.32;36.61
27425;BME280;15244;49.088;11.886;2023-06-22T11:56:47;95753.09;;;33.44;36.18
27425;BME280;15244;49.088;11.886;2023-06-22T12:01:49;95756.03;;;33.58;36.46
27425;BME280;15244;49.088;11.886;2023-06-22T12:06:52;95753.00;;;33.69;36.02
27425;BME280;15244;49.088;11.886;2023-06-22T12:11:54;95742.28;;;33.81;36.11
27425;BME280;15244;49.088;11.886;2023-06-22T12:16:55;95738.50;;;33.92;36.04
27425;BME280;15244;49.088;11.886;2023-06-22T12:21:57;95733.63;;;34.05;35.75
27425;BME280;15244;49.088;11.886;2023-06-22T12:26:58;95720.84;;;34.18;35.31
27425;BME280;15244;49.088;11.886;2023-06-22T12:32:00;95707.03;;;34.27;35.30
27425;BME280;15244;49.088;11.886;2023-06-22T12:37:02;95707.81;;;34.41;35.43
27425;BME280;15244;49.088;11.886;2023-06-22T12:42:03;95702.16;;;34.55;35.80
27425;BME280;15244;49.088;11.886;2023-06-22T12:47:05;95699.31;;;34.68;35.55
27425;BME280;15244;49.088;11.886;2023-06-22T12:52:10;95690.25;;;34.83;35.19
27425;BME280;15244;49.088;11.886;2023-06-22T12:57:12;95686.09;;;34.97;34.85
27425;BME280;15244;49.088;11.886;2023-06-22T13:02:14;95677.88;;;35.07;34.41
27425;BME280;15244;49.088;11.886;2023-06-22T13:07:16;95687.13;;;35.21;35.07
27425;BME280;15244;49.088;11.886;2023-06-22T13:12:23;95674.22;;;35.33;35.00
27425;BME280;15244;49.088;11.886;2023-06-22T13:17:25;95674.91;;;35.47;34.80
27425;BME280;15244;49.088;11.886;2023-06-22T13:22:34;95669.78;;;35.58;33.99
27425;BME280;15244;49.088;11.886;2023-06-22T13:27:41;95657.19;;;35.67;33.32
27425;BME280;15244;49.088;11.886;2023-06-22T13:32:43;95649.63;;;35.70;33.33
27425;BME280;15244;49.088;11.886;2023-06-22T13:37:45;95629.84;;;35.77;33.04
27425;BME280;15244;49.088;11.886;2023-06-22T13:42:46;95616.69;;;35.88;33.28
27425;BME280;15244;49.088;11.886;2023-06-22T13:47:48;95632.09;;;36.00;33.14
27425;BME280;15244;49.088;11.886;2023-06-22T13:52:49;95631.94;;;36.06;33.06
27425;BME280;15244;49.088;11.886;2023-06-22T13:57:51;95632.16;;;36.08;33.09
27425;BME280;15244;49.088;11.886;2023-06-22T14:02:53;95605.09;;;36.07;32.39
27425;BME280;15244;49.088;11.886;2023-06-22T14:07:55;95608.69;;;36.07;32.41
27425;BME280;15244;49.088;11.886;2023-06-22T14:12:56;95610.00;;;36.06;32.38
27425;BME280;15244;49.088;11.886;2023-06-22T14:17:58;95603.78;;;36.08;32.81
27425;BME280;15244;49.088;11.886;2023-06-22T14:23:00;95612.34;;;36.15;33.04
27425;BME280;15244;49.088;11.886;2023-06-22T14:28:02;95615.22;;;36.23;31.82
27425;BME280;15244;49.088;11.886;2023-06-22T14:33:05;95618.31;;;36.33;31.83
27425;BME280;15244;49.088;11.886;2023-06-22T14:38:07;95615.16;;;36.44;31.63
27425;BME280;15244;49.088;11.886;2023-06-22T14:43:09;95611.22;;;36.55;31.82
27425;BME280;15244;49.088;11.886;2023-06-22T14:48:10;95597.84;;;36.63;31.38
27425;BME280;15244;49.088;11.886;2023-06-22T14:53:12;95601.28;;;36.69;31.24
27425;BME280;15244;49.088;11.886;2023-06-22T14:58:17;95593.75;;;36.79;31.28
27425;BME280;15244;49.088;11.886;2023-06-22T15:03:19;95588.09;;;36.95;31.31
27425;BME280;15244;49.088;11.886;2023-06-22T15:08:24;95575.97;;;37.02;29.97
27425;BME280;15244;49.088;11.886;2023-06-22T15:13:26;95571.66;;;37.08;30.22
27425;BME280;15244;49.088;11.886;2023-06-22T15:18:29;95560.50;;;37.11;29.49
27425;BME280;15244;49.088;11.886;2023-06-22T15:23:31;95559.00;;;37.17;29.78
27425;BME280;15244;49.088;11.886;2023-06-22T15:28:33;95526.94;;;37.24;29.76
27425;BME280;15244;49.088;11.886;2023-06-22T15:33:38;95521.09;;;37.38;29.43
27425;BME280;15244;49.088;11.886;2023-06-22T15:38:40;95516.19;;;37.54;29.26
27425;BME280;15244;49.088;11.886;2023-06-22T15:43:42;95496.03;;;37.67;29.57
27425;BME280;15244;49.088;11.886;2023-06-22T15:48:44;95485.78;;;37.79;29.00
27425;BME280;15244;49.088;11.886;2023-06-22T15:53:48;95479.84;;;37.92;29.02
27425;BME280;15244;49.088;11.886;2023-06-22T15:58:50;95476.03;;;38.05;28.64
27425;BME280;15244;49.088;11.886;2023-06-22T16:03:52;95460.06;;;38.17;28.68
27425;BME280;15244;49.088;11.886;2023-06-22T16:08:54;95451.84;;;38.29;28.49
27425;BME280;15244;49.088;11.886;2023-06-22T16:13:56;95430.72;;;38.40;28.09
27425;BME280;15244;49.088;11.886;2023-06-22T16:18:57;95426.91;;;38.45;27.75
27425;BME280;15244;49.088;11.886;2023-06-22T16:23:59;95419.66;;;38.52;27.85
27425;BME280;15244;49.088;11.886;2023-06-22T16:29:01;95416.94;;;38.62;27.83
27425;BME280;15244;49.088;11.886;2023-06-22T16:34:03;95425.56;;;38.71;27.81
27425;BME280;15244;49.088;11.886;2023-06-22T16:39:04;95417.56;;;38.77;27.02
27425;BME280;15244;49.088;11.886;2023-06-22T16:44:06;95407.69;;;38.78;26.89
27425;BME280;15244;49.088;11.886;2023-06-22T16:49:08;95405.06;;;38.73;27.00
27425;BME280;15244;49.088;11.886;2023-06-22T16:54:09;95400.19;;;38.66;27.00
27425;BME280;15244;49.088;11.886;2023-06-22T16:59:11;95390.53;;;38.61;26.77
27425;BME280;15244;49.088;11.886;2023-06-22T17:04:16;95396.22;;;38.61;27.29
27425;BME280;15244;49.088;11.886;2023-06-22T17:09:21;95379.56;;;38.57;26.85
27425;BME280;15244;49.088;11.886;2023-06-22T17:14:23;95376.00;;;38.49;26.40
27425;BME280;15244;49.088;11.886;2023-06-22T17:19:24;95370.72;;;38.38;26.67
27425;BME280;15244;49.088;11.886;2023-06-22T17:24:26;95347.81;;;38.28;27.16
27425;BME280;15244;49.088;11.886;2023-06-22T17:29:29;95361.53;;;38.22;27.25
27425;BME280;15244;49.088;11.886;2023-06-22T17:34:35;95382.50;;;38.09;27.25
27425;BME280;15244;49.088;11.886;2023-06-22T17:39:36;95395.63;;;37.97;26.77
27425;BME280;15244;49.088;11.886;2023-06-22T17:44:38;95408.56;;;37.83;27.62
27425;BME280;15244;49.088;11.886;2023-06-22T17:49:41;95394.06;;;37.63;27.95
27425;BME280;15244;49.088;11.886;2023-06-22T17:54:43;95390.09;;;37.43;28.50
27425;BME280;15244;49.088;11.886;2023-06-22T18:00:05;95422.19;;;37.21;28.71
27425;BME280;15244;49.088;11.886;2023-06-22T18:05:13;95444.91;;;36.98;29.23
27425;BME280;15244;49.088;11.886;2023-06-22T18:10:15;95474.06;;;36.75;29.00
27425;BME280;15244;49.088;11.886;2023-06-22T18:15:17;95532.06;;;36.51;29.55
27425;BME280;15244;49.088;11.886;2023-06-22T18:20:19;95546.44;;;36.01;29.64
27425;BME280;15244;49.088;11.886;2023-06-22T18:25:21;95518.44;;;35.69;29.53
27425;BME280;15244;49.088;11.886;2023-06-22T18:30:23;95428.09;;;35.45;31.13
27425;BME280;15244;49.088;11.886;2023-06-22T18:35:25;95364.16;;;35.28;32.96
27425;BME280;15244;49.088;11.886;2023-06-22T18:40:27;95380.50;;;35.14;35.05
27425;BME280;15244;49.088;11.886;2023-06-22T18:45:29;95448.72;;;34.95;35.91
27425;BME280;15244;49.088;11.886;2023-06-22T18:50:39;95527.97;;;34.40;35.12
27425;BME280;15244;49.088;11.886;2023-06-22T18:55:43;95521.31;;;33.77;35.09
27425;BME280;15244;49.088;11.886;2023-06-22T19:00:50;95509.31;;;33.31;36.31
27425;BME280;15244;49.088;11.886;2023-06-22T19:05:53;95480.31;;;32.85;36.41
27425;BME280;15244;49.088;11.886;2023-06-22T19:11:11;95422.78;;;32.55;37.42
27425;BME280;15244;49.088;11.886;2023-06-22T19:16:14;95391.31;;;32.51;38.62
27425;BME280;15244;49.088;11.886;2023-06-22T19:21:22;95370.84;;;32.45;38.49
27425;BME280;15244;49.088;11.886;2023-06-22T19:26:24;95352.81;;;32.35;38.28
27425;BME280;15244;49.088;11.886;2023-06-22T19:31:26;95328.91;;;32.23;38.01
27425;BME280;15244;49.088;11.886;2023-06-22T19:36:33;95302.41;;;32.12;38.53
27425;BME280;15244;49.088;11.886;2023-06-22T19:41:35;95304.56;;;31.87;39.05
27425;BME280;15244;49.088;11.886;2023-06-22T19:46:37;95300.72;;;31.71;39.94
27425;BME280;15244;49.088;11.886;2023-06-22T19:51:39;95311.94;;;31.58;39.29
27425;BME280;15244;49.088;11.886;2023-06-22T19:56:40;95336.25;;;31.18;40.15
27425;BME280;15244;49.088;11.886;2023-06-22T20:01:42;95312.06;;;30.60;41.18
27425;BME280;15244;49.088;11.886;2023-06-22T20:06:59;95267.63;;;30.28;41.20
27425;BME280;15244;49.088;11.886;2023-06-22T20:12:01;95257.41;;;29.95;41.49
27425;BME280;15244;49.088;11.886;2023-06-22T20:17:06;95238.09;;;29.86;41.85
27425;BME280;15244;49.088;11.886;2023-06-22T20:22:10;95260.41;;;29.72;41.42
27425;BME280;15244;49.088;11.886;2023-06-22T20:27:13;95404.72;;;29.69;41.14
27425;BME280;15244;49.088;11.886;2023-06-22T20:32:16;95485.78;;;29.26;41.12
27425;BME280;15244;49.088;11.886;2023-06-22T20:37:18;95558.50;;;28.73;41.27
27425;BME280;15244;49.088;11.886;2023-06-22T20:42:20;95600.19;;;28.26;41.14
27425;BME280;15244;49.088;11.886;2023-06-22T20:47:22;95682.31;;;27.95;41.29
27425;BME280;15244;49.088;11.886;2023-06-22T20:52:23;95643.50;;;27.44;41.74
27425;BME280;15244;49.088;11.886;2023-06-22T20:57:25;95628.63;;;27.01;41.84
27425;BME280;15244;49.088;11.886;2023-06-22T21:02:27;95625.44;;;26.62;42.28
27425;BME280;15244;49.088;11.886;2023-06-22T21:07:28;95662.50;;;26.36;41.98
27425;BME280;15244;49.088;11.886;2023-06-22T21:12:30;95674.22;;;26.40;41.82
27425;BME280;15244;49.088;11.886;2023-06-22T21:17:34;95671.72;;;26.42;42.41
27425;BME280;15244;49.088;11.886;2023-06-22T21:22:36;95685.28;;;26.70;43.32
27425;BME280;15244;49.088;11.886;2023-06-22T21:27:39;95669.97;;;26.91;43.46
27425;BME280;15244;49.088;11.886;2023-06-22T21:32:41;95657.44;;;27.07;43.48
27425;BME280;15244;49.088;11.886;2023-06-22T21:37:43;95636.47;;;26.97;43.31
27425;BME280;15244;49.088;11.886;2023-06-22T21:42:49;95613.75;;;26.63;43.77
27425;BME280;15244;49.088;11.886;2023-06-22T21:47:53;95647.59;;;26.45;44.15
27425;BME280;15244;49.088;11.886;2023-06-22T21:52:55;95684.00;;;26.30;44.34
27425;BME280;15244;49.088;11.886;2023-06-22T21:57:57;95694.19;;;26.33;44.40
27425;BME280;15244;49.088;11.886;2023-06-22T22:02:58;95693.84;;;26.46;45.16
27425;BME280;15244;49.088;11.886;2023-06-22T22:08:00;95692.47;;;26.56;45.28
27425;BME280;15244;49.088;11.886;2023-06-22T22:13:03;95666.88;;;26.63;45.38
27425;BME280;15244;49.088;11.886;2023-06-22T22:18:06;95643.03;;;26.68;45.55
27425;BME280;15244;49.088;11.886;2023-06-22T22:23:09;95641.28;;;26.70;45.23
27425;BME280;15244;49.088;11.886;2023-06-22T22:28:11;95648.44;;;26.71;45.57
27425;BME280;15244;49.088;11.886;2023-06-22T22:33:13;95654.56;;;26.75;45.46
27425;BME280;15244;49.088;11.886;2023-06-22T22:38:15;95661.91;;;26.73;45.79
27425;BME280;15244;49.088;11.886;2023-06-22T22:43:18;95663.94;;;26.72;45.69
27425;BME280;15244;49.088;11.886;2023-06-22T22:48:20;95663.38;;;26.68;46.10
27425;BME280;15244;49.088;11.886;2023-06-22T22:53:21;95681.91;;;26.66;45.93
27425;BME280;15244;49.088;11.886;2023-06-22T22:58:23;95690.53;;;26.62;46.21
27425;BME280;15244;49.088;11.886;2023-06-22T23:03:25;95707.78;;;26.61;46.07
27425;BME280;15244;49.088;11.886;2023-06-22T23:08:27;95711.28;;;26.55;46.05
27425;BME280;15244;49.088;11.886;2023-06-22T23:13:29;95731.03;;;26.52;46.60
27425;BME280;15244;49.088;11.886;2023-06-22T23:18:35;95735.78;;;26.46;46.24
27425;BME280;15244;49.088;11.886;2023-06-22T23:23:36;95736.97;;;26.39;46.47
27425;BME280;15244;49.088;11.886;2023-06-22T23:28:38;95736.13;;;26.33;46.78
27425;BME280;15244;49.088;11.886;2023-06-22T23:33:39;95740.66;;;26.30;46.50
27425;BME280;15244;49.088;11.886;2023-06-22T23:38:42;95745.13;;;26.22;46.37
27425;BME280;15244;49.088;11.886;2023-06-22T23:43:43;95731.00;;;26.11;46.05
27425;BME280;15244;49.088;11.886;2023-06-22T23:48:48;95742.78;;;26.00;46.05
27425;BME280;15244;49.088;11.886;2023-06-22T23:53:49;95741.16;;;25.79;46.69
27425;BME280;15244;49.088;11.886;2023-06-22T23:58:52;95746.00;;;25.63;46.63
